createdAt,value
2019-05-15T00:01:22.757Z,100092.31
2019-05-15T00:03:53.338Z,100089.98
2019-05-15T00:06:23.976Z,100087.30
2019-05-15T00:08:54.661Z,100082.78
2019-05-15T00:11:25.423Z,100082.77
2019-05-15T00:13:55.987Z,100080.73
2019-05-15T00:16:28.833Z,100070.05
2019-05-15T00:18:59.248Z,100070.59
2019-05-15T00:21:29.947Z,100065.57
2019-05-15T00:24:00.493Z,100068.52
2019-05-15T00:26:31.057Z,100057.36
2019-05-15T00:29:12.015Z,100052.31
2019-05-15T00:31:33.844Z,100052.72
2019-05-15T00:34:04.835Z,100055.16
2019-05-15T00:36:35.367Z,100052.59
2019-05-15T00:39:08.442Z,100040.63
2019-05-15T00:41:50.895Z,100035.90
2019-05-15T00:44:12.006Z,100036.27
2019-05-15T00:46:42.729Z,100032.66
2019-05-15T00:49:13.363Z,100034.33
2019-05-15T00:51:44.388Z,100028.56
2019-05-15T00:54:14.958Z,100028.94
2019-05-15T00:56:45.609Z,100026.37
2019-05-15T00:59:24.108Z,100024.70
2019-05-15T01:01:48.837Z,100019.69
2019-05-15T01:04:19.677Z,100026.24
2019-05-15T01:06:52.675Z,100019.03
2019-05-15T01:09:22.756Z,100015.67
2019-05-15T01:11:53.461Z,100009.38
2019-05-15T01:14:23.928Z,100009.25
2019-05-15T01:16:54.511Z,100007.34
2019-05-15T01:19:25.132Z,100002.95
2019-05-15T01:21:55.943Z,100004.65
2019-05-15T01:24:28.318Z,100009.29
2019-05-15T01:26:59.096Z,99997.06
2019-05-15T01:29:41.111Z,99995.33
2019-05-15T01:32:02.286Z,99994.83
2019-05-15T01:34:32.839Z,99987.25
2019-05-15T01:37:03.408Z,99983.77
2019-05-15T01:39:34.058Z,99985.30
2019-05-15T01:42:04.707Z,99981.06
2019-05-15T01:44:35.337Z,99974.52
2019-05-15T01:47:08.304Z,99976.05
2019-05-15T01:49:38.496Z,99969.38
2019-05-15T01:52:09.171Z,99964.36
2019-05-15T01:54:39.777Z,99967.44
2019-05-15T01:57:10.294Z,99956.25
2019-05-15T01:59:53.940Z,99959.48
2019-05-15T02:02:13.608Z,99957.83
2019-05-15T02:04:44.316Z,99953.97
2019-05-15T02:07:14.944Z,99953.80
2019-05-15T02:09:45.646Z,99947.91
2019-05-15T02:12:18.985Z,99947.50
2019-05-15T02:14:48.908Z,99947.74
2019-05-15T02:17:19.535Z,99945.83
2019-05-15T02:19:50.246Z,99942.36
2019-05-15T02:22:20.853Z,99940.58
2019-05-15T02:24:51.352Z,99944.17
2019-05-15T02:27:21.842Z,99940.58
2019-05-15T02:29:52.411Z,99928.78
2019-05-15T02:32:23.079Z,99934.30
2019-05-15T02:34:53.793Z,99932.63
2019-05-15T02:37:24.498Z,99935.44
2019-05-15T02:39:55.176Z,99934.16
2019-05-15T02:42:28.723Z,99928.12
2019-05-15T02:44:58.687Z,99931.47
2019-05-15T02:47:29.536Z,99929.03
2019-05-15T02:50:00.194Z,99926.16
2019-05-15T02:52:30.779Z,99922.97
2019-05-15T02:55:01.546Z,99925.16
2019-05-15T02:57:32.176Z,99926.81
2019-05-15T03:00:02.726Z,99925.11
2019-05-15T03:02:33.389Z,99928.96
2019-05-15T03:05:04.605Z,99928.59
2019-05-15T03:07:35.282Z,99925.52
2019-05-15T03:10:09.161Z,99924.11
2019-05-15T03:12:40.819Z,99918.98
2019-05-15T03:15:12.098Z,99920.89
2019-05-15T03:17:42.705Z,99919.47
2019-05-15T03:20:13.758Z,99926.38
2019-05-15T03:22:44.637Z,99923.31
2019-05-15T03:25:18.961Z,99918.19
2019-05-15T03:27:49.981Z,99919.97
2019-05-15T03:30:22.103Z,99914.09
2019-05-15T03:33:00.801Z,99916.66
2019-05-15T03:35:25.345Z,99913.84
2019-05-15T03:37:55.854Z,99914.34
2019-05-15T03:40:29.550Z,99910.75
2019-05-15T03:42:59.467Z,99912.56
2019-05-15T03:45:30.236Z,99913.55
2019-05-15T03:48:00.838Z,99911.00
2019-05-15T03:50:31.437Z,99909.98
2019-05-15T03:53:02.048Z,99908.97
2019-05-15T03:55:32.847Z,99908.84
2019-05-15T03:58:03.479Z,99904.59
2019-05-15T04:00:34.213Z,99907.80
2019-05-15T04:03:05.037Z,99910.63
2019-05-15T04:05:38.658Z,99909.22
2019-05-15T04:08:10.990Z,99910.63
2019-05-15T04:10:40.794Z,99904.59
2019-05-15T04:13:11.499Z,99908.84
2019-05-15T04:15:42.183Z,99905.38
2019-05-15T04:18:12.842Z,99910.14
2019-05-15T04:20:43.466Z,99909.48
2019-05-15T04:23:19.059Z,99907.44
2019-05-15T04:25:53.452Z,99907.69
2019-05-15T04:28:24.221Z,99905.50
2019-05-15T04:30:54.951Z,99898.72
2019-05-15T04:33:28.982Z,99900.37
2019-05-15T04:35:58.932Z,99898.06
2019-05-15T04:38:29.897Z,99895.66
2019-05-15T04:41:01.152Z,99890.77
2019-05-15T04:43:39.601Z,99885.11
2019-05-15T04:46:04.240Z,99888.20
2019-05-15T04:48:35.576Z,99885.64
2019-05-15T04:51:09.464Z,99893.34
2019-05-15T04:53:39.600Z,99887.42
2019-05-15T04:56:11.008Z,99887.17
2019-05-15T04:58:42.174Z,99890.78
2019-05-15T05:01:13.298Z,99883.08
2019-05-15T05:03:44.728Z,99882.70
2019-05-15T05:06:18.767Z,99883.20
2019-05-15T05:08:50.828Z,99877.95
2019-05-15T05:11:24.043Z,99880.52
2019-05-15T05:13:54.717Z,99875.89
2019-05-15T05:16:25.866Z,99878.73
2019-05-15T05:18:59.241Z,99874.48
2019-05-15T05:21:28.986Z,99876.92
2019-05-15T05:23:59.681Z,99878.20
2019-05-15T05:26:30.317Z,99879.62
2019-05-15T05:29:01.510Z,99880.52
2019-05-15T05:31:32.467Z,99879.25
2019-05-15T05:34:03.689Z,99885.91
2019-05-15T05:36:35.273Z,99883.47
2019-05-15T05:39:09.586Z,99882.59
2019-05-15T05:41:41.088Z,99878.75
2019-05-15T05:44:12.179Z,99881.56
2019-05-15T05:46:43.364Z,99882.60
2019-05-15T05:49:14.580Z,99875.94
2019-05-15T05:51:48.116Z,99874.91
2019-05-15T05:54:18.867Z,99866.04
2019-05-15T05:56:50.146Z,99861.81
2019-05-15T05:59:21.126Z,99861.06
2019-05-15T06:01:52.407Z,99866.94
2019-05-15T06:04:23.257Z,99869.26
2019-05-15T06:07:06.033Z,99878.00
2019-05-15T06:09:27.799Z,99874.02
2019-05-15T06:11:59.013Z,99876.21
2019-05-15T06:14:30.234Z,99874.95
2019-05-15T06:17:02.172Z,99870.80
2019-05-15T06:19:33.233Z,99871.58
2019-05-15T06:22:04.523Z,99863.09
2019-05-15T06:24:37.802Z,99865.66
2019-05-15T06:27:08.336Z,99876.70
2019-05-15T06:29:39.427Z,99868.41
2019-05-15T06:32:29.798Z,99862.12
2019-05-15T06:35:00.472Z,99863.89
2019-05-15T06:37:31.528Z,99857.20
2019-05-15T06:40:02.226Z,99858.76
2019-05-15T06:42:33.635Z,99861.30
2019-05-15T06:45:04.721Z,99848.20
2019-05-15T06:47:35.723Z,99854.70
2019-05-15T06:50:08.646Z,99858.57
2019-05-15T06:52:39.634Z,99857.01
2019-05-15T06:55:11.047Z,99848.86
2019-05-15T06:57:41.869Z,99852.59
2019-05-15T07:00:12.689Z,99851.97
2019-05-15T07:02:43.446Z,99851.99
2019-05-15T07:05:14.638Z,99854.32
2019-05-15T07:07:48.705Z,99862.06
2019-05-15T07:10:19.436Z,99858.84
2019-05-15T07:12:51.491Z,99856.55
2019-05-15T07:15:22.552Z,99862.71
2019-05-15T07:20:38.872Z,99872.19
2019-05-15T07:23:09.315Z,99866.69
2019-05-15T07:25:40.543Z,99871.03
2019-05-15T07:28:11.189Z,99863.83
2019-05-15T07:30:41.922Z,99867.80
2019-05-15T07:33:12.574Z,99866.14
2019-05-15T07:35:43.247Z,99866.66
2019-05-15T07:38:13.909Z,99861.24
2019-05-15T07:40:44.662Z,99862.92
2019-05-15T07:43:15.266Z,99858.95
2019-05-15T07:45:52.428Z,99858.66
2019-05-15T07:48:19.036Z,99856.87
2019-05-15T07:50:50.083Z,99850.41
2019-05-15T07:53:20.687Z,99853.09
2019-05-15T07:55:51.554Z,99842.03
2019-05-15T07:58:22.261Z,99848.81
2019-05-15T08:00:53.106Z,99845.38
2019-05-15T08:03:23.762Z,99850.96
2019-05-15T08:05:59.276Z,99847.36
2019-05-15T08:08:28.975Z,99839.24
2019-05-15T08:10:59.127Z,99844.62
2019-05-15T08:13:29.747Z,99837.63
2019-05-15T08:16:00.465Z,99830.98
2019-05-15T08:18:31.180Z,99831.44
2019-05-15T08:21:01.746Z,99837.70
2019-05-15T08:23:32.570Z,99841.67
2019-05-15T08:26:03.108Z,99838.25
2019-05-15T08:28:33.829Z,99833.84
2019-05-15T08:31:06.651Z,99834.18
2019-05-15T08:33:38.853Z,99817.87
2019-05-15T08:36:09.508Z,99814.66
2019-05-15T08:38:40.207Z,99822.83
2019-05-15T08:41:11.702Z,99834.86
2019-05-15T08:43:42.547Z,99835.31
2019-05-15T08:46:13.418Z,99830.93
2019-05-15T08:48:44.067Z,99830.39
2019-05-15T08:51:14.867Z,99836.80
2019-05-15T08:53:45.532Z,99838.50
2019-05-15T08:56:19.147Z,99829.98
2019-05-15T08:58:48.773Z,99838.38
2019-05-15T09:01:19.637Z,99839.97
2019-05-15T09:03:50.360Z,99838.53
2019-05-15T09:06:23.091Z,99840.53
2019-05-15T09:08:53.851Z,99839.89
2019-05-15T09:11:24.380Z,99833.42
2019-05-15T09:13:54.941Z,99845.97
2019-05-15T09:16:27.943Z,99842.75
2019-05-15T09:18:59.143Z,99849.19
2019-05-15T09:21:30.080Z,99842.34
2019-05-15T09:24:00.748Z,99845.64
2019-05-15T09:26:31.596Z,99838.34
2019-05-15T09:29:02.418Z,99835.39
2019-05-15T09:31:33.200Z,99839.82
2019-05-15T09:34:04.080Z,99836.95
2019-05-15T09:36:34.752Z,99846.25
2019-05-15T09:39:08.709Z,99838.16
2019-05-15T09:41:39.667Z,99837.17
2019-05-15T09:44:10.285Z,99838.34
2019-05-15T09:46:40.950Z,99834.67
2019-05-15T09:49:11.520Z,99821.81
2019-05-15T09:51:42.143Z,99824.64
2019-05-15T09:54:12.843Z,99810.98
2019-05-15T09:56:43.612Z,99819.92
2019-05-15T09:59:14.430Z,99823.59
2019-05-15T10:01:45.204Z,99819.54
2019-05-15T10:04:15.863Z,99825.52
2019-05-15T10:06:48.498Z,99821.30
2019-05-15T10:09:19.115Z,99811.27
2019-05-15T10:11:49.875Z,99808.38
2019-05-15T10:14:20.533Z,99813.59
2019-05-15T10:16:51.849Z,99813.70
2019-05-15T10:19:22.462Z,99807.95
2019-05-15T10:21:53.479Z,99804.31
2019-05-15T10:24:24.174Z,99795.55
2019-05-15T10:26:54.771Z,99790.25
2019-05-15T10:29:25.303Z,99796.48
2019-05-15T10:31:55.947Z,99786.81
2019-05-15T10:34:28.757Z,99778.23
2019-05-15T10:36:59.168Z,99784.40
2019-05-15T10:39:29.977Z,99786.72
2019-05-15T10:42:00.615Z,99781.56
2019-05-15T10:44:31.460Z,99791.16
2019-05-15T10:47:02.193Z,99787.67
2019-05-15T10:49:32.946Z,99782.95
2019-05-15T10:52:03.653Z,99789.33
2019-05-15T10:54:34.852Z,99786.97
2019-05-15T10:57:08.514Z,99785.27
2019-05-15T10:59:38.371Z,99782.91
2019-05-15T11:02:09.315Z,99784.09
2019-05-15T11:04:40.113Z,99782.47
2019-05-15T11:07:11.205Z,99779.04
2019-05-15T11:09:42.336Z,99779.95
2019-05-15T11:12:13.265Z,99781.56
2019-05-15T11:14:43.926Z,99783.33
2019-05-15T11:17:14.475Z,99778.13
2019-05-15T11:19:45.256Z,99775.23
2019-05-15T11:22:18.774Z,99777.55
2019-05-15T11:24:52.832Z,99782.14
2019-05-15T11:27:21.566Z,99778.02
2019-05-15T11:29:52.345Z,99768.89
2019-05-15T11:32:23.660Z,99761.66
2019-05-15T11:34:54.617Z,99765.73
2019-05-15T11:37:28.131Z,99765.51
2019-05-15T11:39:58.975Z,99754.98
2019-05-15T11:42:30.263Z,99764.22
2019-05-15T11:45:01.441Z,99758.38
2019-05-15T11:47:32.802Z,99762.98
2019-05-15T11:50:04.304Z,99757.89
2019-05-15T11:52:37.379Z,99758.22
2019-05-15T11:55:09.287Z,99744.27
2019-05-15T11:57:46.782Z,99755.64
2019-05-15T12:00:17.745Z,99749.25
2019-05-15T12:02:47.650Z,99752.95
2019-05-15T12:05:19.206Z,99760.14
2019-05-15T12:07:50.374Z,99743.28
2019-05-15T12:10:21.470Z,99748.87
2019-05-15T12:12:52.740Z,99743.82
2019-05-15T12:15:23.810Z,99749.92
2019-05-15T12:17:54.988Z,99748.18
2019-05-15T12:20:28.337Z,99746.89
2019-05-15T12:22:59.434Z,99745.59
2019-05-15T12:25:31.952Z,99748.30
2019-05-15T12:28:03.022Z,99749.95
2019-05-15T12:30:33.708Z,99744.16
2019-05-15T12:33:04.416Z,99746.78
2019-05-15T12:35:39.204Z,99750.28
2019-05-15T12:38:10.051Z,99750.04
2019-05-15T13:01:14.635Z,99732.71
2019-05-15T13:03:40.207Z,99731.66
2019-05-15T13:06:10.874Z,99730.78
2019-05-15T13:08:48.692Z,99734.48
2019-05-15T13:11:18.236Z,99731.55
2019-05-15T13:13:50.245Z,99728.38
2019-05-15T13:16:24.548Z,99729.59
2019-05-15T13:18:55.393Z,99729.77
2019-05-15T13:21:37.921Z,99719.25
2019-05-15T13:24:09.265Z,99724.06
2019-05-15T13:26:40.078Z,99718.84
2019-05-15T13:29:14.418Z,99713.80
2019-05-15T13:31:47.671Z,99727.06
2019-05-15T13:34:23.500Z,99718.11
2019-05-15T13:36:54.423Z,99718.84
2019-05-15T13:39:28.378Z,99718.74
2019-05-15T13:42:01.629Z,99717.77
2019-05-15T13:44:34.742Z,99714.56
2019-05-15T13:47:24.657Z,99711.81
2019-05-15T13:50:02.754Z,99709.58
2019-05-15T13:52:40.443Z,99705.95
2019-05-15T13:55:25.452Z,99699.05
2019-05-15T13:57:53.506Z,99702.02
2019-05-15T14:00:28.947Z,99704.98
2019-05-15T14:03:03.878Z,99694.46
2019-05-15T14:05:40.512Z,99688.37
2019-05-15T14:08:14.915Z,99685.51
2019-05-15T14:10:48.924Z,99688.57
2019-05-15T14:13:23.266Z,99686.66
2019-05-15T14:15:58.234Z,99686.76
2019-05-15T14:18:32.542Z,99688.59
2019-05-15T14:21:06.024Z,99689.15
2019-05-15T14:23:42.095Z,99684.84
2019-05-15T14:26:20.213Z,99689.02
2019-05-15T14:28:53.682Z,99684.66
2019-05-15T14:31:27.897Z,99676.48
2019-05-15T14:34:01.097Z,99679.22
2019-05-15T14:36:38.125Z,99675.45
2019-05-15T14:39:09.849Z,99678.98
2019-05-15T14:41:44.898Z,99673.87
2019-05-15T14:44:20.767Z,99673.80
2019-05-15T14:46:51.055Z,99670.30
2019-05-15T14:49:34.250Z,99674.34
2019-05-15T14:52:08.213Z,99667.05
2019-05-15T14:54:38.421Z,99661.89
2019-05-15T14:57:10.973Z,99659.72
2019-05-15T14:59:48.684Z,99663.48
2019-05-15T15:02:20.701Z,99667.84
2019-05-15T15:04:54.457Z,99665.91
2019-05-15T15:07:28.694Z,99660.23
2019-05-15T15:10:03.291Z,99663.30
2019-05-15T15:12:39.734Z,99658.24
2019-05-15T15:15:22.976Z,99656.65
2019-05-15T15:18:01.591Z,99655.36
2019-05-15T15:20:37.959Z,99655.67
2019-05-15T15:23:13.348Z,99658.41
2019-05-15T15:25:58.932Z,99657.14
2019-05-15T15:28:31.013Z,99652.03
2019-05-15T15:31:08.381Z,99652.34
2019-05-15T15:33:42.647Z,99654.16
2019-05-15T15:36:14.812Z,99649.50
2019-05-15T15:38:50.906Z,99647.62
2019-05-15T15:41:23.116Z,99642.59
2019-05-15T15:43:58.678Z,99646.27
2019-05-15T15:46:39.854Z,99643.57
2019-05-15T15:49:11.336Z,99640.47
2019-05-15T15:51:48.616Z,99635.94
2019-05-15T15:54:24.845Z,99629.15
2019-05-15T15:56:55.873Z,99627.99
2019-05-15T15:59:28.941Z,99626.98
2019-05-15T16:02:03.562Z,99631.36
2019-05-15T16:04:40.856Z,99625.73
2019-05-15T16:07:12.032Z,99627.29
2019-05-15T16:09:44.028Z,99628.59
2019-05-15T16:12:19.526Z,99631.31
2019-05-15T16:14:50.382Z,99623.44
2019-05-15T16:17:31.183Z,99621.27
2019-05-15T16:20:02.507Z,99619.65
2019-05-15T16:22:38.120Z,99617.70
2019-05-15T16:25:14.877Z,99616.30
2019-05-15T16:27:48.812Z,99614.83
2019-05-15T16:30:21.115Z,99610.05
2019-05-15T16:33:02.767Z,99615.30
2019-05-15T16:35:34.807Z,99612.20
2019-05-15T16:38:14.213Z,99608.12
2019-05-15T16:40:54.513Z,99606.98
2019-05-15T16:43:25.358Z,99606.06
2019-05-15T16:46:01.514Z,99607.54
2019-05-15T16:48:32.324Z,99609.41
2019-05-15T16:51:09.154Z,99606.27
2019-05-15T16:53:43.494Z,99601.78
2019-05-15T16:56:19.004Z,99601.49
2019-05-15T16:58:53.678Z,99592.16
2019-05-15T17:01:28.999Z,99585.01
2019-05-15T17:04:04.633Z,99592.16
2019-05-15T17:06:38.733Z,99581.94
2019-05-15T17:09:21.097Z,99588.86
2019-05-15T17:11:58.178Z,99586.92
2019-05-15T17:14:38.391Z,99582.85
2019-05-15T17:17:18.365Z,99579.35
2019-05-15T17:19:51.712Z,99578.83
2019-05-15T17:22:26.109Z,99581.93
2019-05-15T17:25:01.063Z,99589.97
2019-05-15T17:27:40.741Z,99584.61
2019-05-15T17:30:18.261Z,99586.48
2019-05-15T17:32:58.996Z,99588.20
2019-05-15T17:35:32.077Z,99589.95
2019-05-15T17:38:12.103Z,99583.99
2019-05-15T17:40:48.445Z,99577.88
2019-05-15T17:43:22.076Z,99579.65
2019-05-15T17:45:52.959Z,99575.48
2019-05-15T17:48:29.533Z,99576.77
2019-05-15T17:51:09.153Z,99573.86
2019-05-15T17:53:43.817Z,99570.28
2019-05-15T17:56:19.503Z,99570.08
2019-05-15T17:58:52.692Z,99565.82
2019-05-15T18:01:32.370Z,99562.23
2019-05-15T18:04:04.809Z,99562.52
2019-05-15T18:06:39.846Z,99559.94
2019-05-15T18:09:18.745Z,99552.20
2019-05-15T18:11:52.533Z,99557.88
2019-05-15T18:14:33.346Z,99556.88
2019-05-15T18:17:08.726Z,99552.39
2019-05-15T18:19:40.682Z,99554.87
2019-05-15T18:22:18.093Z,99555.67
2019-05-15T18:24:54.882Z,99548.91
2019-05-15T18:27:28.203Z,99553.86
2019-05-15T18:30:02.712Z,99549.91
2019-05-15T18:32:42.181Z,99546.94
2019-05-15T18:35:15.522Z,99537.39
2019-05-15T18:37:51.942Z,99536.63
2019-05-15T18:40:30.562Z,99531.27
2019-05-15T18:43:18.132Z,99529.66
2019-05-15T18:45:51.793Z,99526.69
2019-05-15T18:48:25.983Z,99531.75
2019-05-15T18:50:58.759Z,99531.75
2019-05-15T18:53:33.492Z,99532.94
2019-05-15T18:56:08.896Z,99529.07
2019-05-15T18:58:43.691Z,99528.27
2019-05-15T19:01:22.148Z,99537.91
2019-05-15T19:03:54.081Z,99532.75
2019-05-15T19:06:31.567Z,99535.44
2019-05-15T19:09:08.035Z,99534.95
2019-05-15T19:11:38.616Z,99532.47
2019-05-15T19:14:18.732Z,99534.54
2019-05-15T19:16:52.176Z,99532.09
2019-05-15T19:19:30.082Z,99523.66
2019-05-15T19:22:10.856Z,99522.75
2019-05-15T19:24:46.590Z,99526.33
2019-05-15T19:27:24.148Z,99518.83
2019-05-15T19:29:55.011Z,99516.92
2019-05-15T19:32:40.302Z,99515.34
2019-05-15T19:35:15.464Z,99511.58
2019-05-15T19:37:49.853Z,99505.94
2019-05-15T19:40:22.074Z,99508.19
2019-05-15T19:42:53.948Z,99506.13
2019-05-15T19:45:28.197Z,99500.59
2019-05-15T19:48:02.026Z,99494.82
2019-05-15T19:50:36.333Z,99499.98
2019-05-15T19:53:12.255Z,99489.75
2019-05-15T19:55:48.344Z,99486.59
2019-05-15T19:58:23.584Z,99484.59
2019-05-15T20:00:57.325Z,99481.53
2019-05-15T20:03:28.468Z,99478.15
2019-05-15T20:06:01.620Z,99477.66
2019-05-15T20:08:33.115Z,99470.84
2019-05-15T20:11:05.038Z,99471.41
2019-05-15T20:13:38.509Z,99469.55
2019-05-15T20:16:11.729Z,99467.34
2019-05-15T20:18:42.517Z,99468.06
2019-05-15T20:21:18.198Z,99457.12
2019-05-15T20:23:58.834Z,99458.91
2019-05-15T20:26:32.796Z,99451.59
2019-05-15T20:29:04.803Z,99453.94
2019-05-15T20:31:40.346Z,99449.88
2019-05-15T20:34:14.313Z,99445.52
2019-05-15T20:36:52.704Z,99445.23
2019-05-15T20:39:23.641Z,99445.52
2019-05-15T20:41:58.276Z,99441.37
2019-05-15T20:44:33.083Z,99435.59
2019-05-15T20:47:10.388Z,99437.27
2019-05-15T20:49:42.872Z,99446.62
2019-05-15T20:52:13.805Z,99441.04
2019-05-15T20:54:47.901Z,99441.33
2019-05-15T20:57:18.273Z,99433.50
2019-05-15T20:59:48.957Z,99439.17
2019-05-15T21:02:19.681Z,99430.14
2019-05-15T21:04:52.589Z,99434.59
2019-05-15T21:07:34.969Z,99420.59
2019-05-15T21:09:55.944Z,99417.41
2019-05-15T21:12:29.878Z,99420.21
2019-05-15T21:15:00.886Z,99422.28
2019-05-15T21:17:31.547Z,99423.80
2019-05-15T21:20:02.159Z,99427.53
2019-05-15T21:22:32.846Z,99427.66
2019-05-15T21:25:03.487Z,99424.56
2019-05-15T21:27:34.136Z,99428.05
2019-05-15T21:30:05.456Z,99427.34
2019-05-15T21:32:38.159Z,99428.14
2019-05-15T21:35:09.209Z,99426.38
2019-05-15T21:37:40.148Z,99424.77
2019-05-15T21:40:11.314Z,99422.41
2019-05-15T21:42:42.004Z,99424.38
2019-05-15T21:45:14.703Z,99422.98
2019-05-15T21:47:45.067Z,99426.95
2019-05-15T21:50:19.345Z,99424.85
2019-05-15T21:52:49.667Z,99422.56
2019-05-15T21:55:20.517Z,99425.95
2019-05-15T21:57:51.462Z,99424.17
2019-05-15T22:00:31.778Z,99415.82
2019-05-15T22:03:02.424Z,99413.44
2019-05-15T22:05:33.301Z,99409.86
2019-05-15T22:08:04.012Z,99405.47
2019-05-15T22:10:34.783Z,99404.56
2019-05-15T22:13:06.626Z,99399.98
2019-05-15T22:15:37.278Z,99396.83
2019-05-15T22:18:08.661Z,99390.77
2019-05-15T22:20:40.386Z,99386.91
2019-05-15T22:23:11.058Z,99385.05
2019-05-15T22:25:42.047Z,99377.89
2019-05-15T22:28:12.626Z,99377.69
2019-05-15T22:30:43.260Z,99374.83
2019-05-15T22:33:13.873Z,99369.53
2019-05-15T22:35:44.516Z,99361.70
2019-05-15T22:38:15.196Z,99351.69
2019-05-15T22:40:48.421Z,99342.77
2019-05-15T22:43:18.665Z,99349.88
2019-05-15T22:45:49.373Z,99353.54
2019-05-15T22:48:19.978Z,99360.17
2019-05-15T22:50:50.666Z,99359.36
2019-05-15T22:53:21.179Z,99363.45
2019-05-15T22:55:52.078Z,99364.32
2019-05-15T22:58:22.882Z,99367.69
2019-05-15T23:00:53.534Z,99361.73
2019-05-15T23:03:24.049Z,99361.94
2019-05-15T23:05:54.563Z,99362.54
2019-05-15T23:08:25.054Z,99354.01
2019-05-15T23:10:58.550Z,99344.59
2019-05-15T23:13:28.700Z,99338.16
2019-05-15T23:15:59.326Z,99339.26
2019-05-15T23:18:30.026Z,99334.78
2019-05-15T23:21:00.668Z,99336.55
2019-05-15T23:23:31.214Z,99332.77
2019-05-15T23:26:01.858Z,99322.61
2019-05-15T23:28:32.563Z,99314.45
2019-05-15T23:31:03.316Z,99296.23
2019-05-15T23:33:33.931Z,99278.69
2019-05-15T23:36:04.568Z,99273.95
2019-05-15T23:38:35.196Z,99272.25
2019-05-15T23:41:08.087Z,99264.84
2019-05-15T23:43:38.951Z,99250.45
2019-05-15T23:46:09.642Z,99252.83
2019-05-15T23:48:40.222Z,99263.42
2019-05-15T23:51:10.852Z,99256.59
2019-05-15T23:53:41.435Z,99250.27
2019-05-15T23:56:12.122Z,99248.17
2019-05-15T23:58:42.675Z,99245.78
